sensor_id;sensor_type;location;lat;lon;timestamp;pressure;altitude;pressure_sealevel;temperature;humidity
11523;BME280;40093;43.224;27.910;2023-03-01T00:00:11;101462.25;;;7.38;100.00
11523;BME280;40093;43.224;27.910;2023-03-01T00:02:38;101472.19;;;7.51;100.00
11523;BME280;40093;43.224;27.910;2023-03-01T00:05:05;101465.06;;;7.50;100.00
11523;BME280;40093;43.224;27.910;2023-03-01T00:07:33;101474.56;;;7.52;100.00
11523;BME280;40093;43.224;27.910;2023-03-01T00:09:59;101477.06;;;7.37;100.00
11523;BME280;40093;43.224;27.910;2023-03-01T00:12:26;101480.00;;;7.32;100.00
11523;BME280;40093;43.224;27.910;2023-03-01T00:14:54;101472.94;;;7.31;100.00
11523;BME280;40093;43.224;27.910;2023-03-01T00:17:21;101473.91;;;7.27;100.00
11523;BME280;40093;43.224;27.910;2023-03-01T00:19:48;101479.41;;;7.18;100.00
11523;BME280;40093;43.224;27.910;2023-03-01T00:22:15;101486.38;;;7.16;100.00
11523;BME280;40093;43.224;27.910;2023-03-01T00:24:42;101478.19;;;7.07;100.00
11523;BME280;40093;43.224;27.910;2023-03-01T00:27:09;101489.78;;;7.04;100.00
11523;BME280;40093;43.224;27.910;2023-03-01T00:29:36;101483.03;;;7.02;100.00
11523;BME280;40093;43.224;27.910;2023-03-01T00:32:04;101475.19;;;7.00;100.00
11523;BME280;40093;43.224;27.910;2023-03-01T00:34:31;101471.63;;;7.00;100.00
11523;BME280;40093;43.224;27.910;2023-03-01T00:36:58;101465.06;;;6.92;100.00
11523;BME280;40093;43.224;27.910;2023-03-01T00:39:31;101466.19;;;6.91;100.00
11523;BME280;40093;43.224;27.910;2023-03-01T00:41:58;101451.41;;;6.84;100.00
11523;BME280;40093;43.224;27.910;2023-03-01T00:44:25;101442.75;;;6.73;100.00
11523;BME280;40093;43.224;27.910;2023-03-01T00:46:53;101438.25;;;6.77;100.00
11523;BME280;40093;43.224;27.910;2023-03-01T00:49:21;101449.38;;;6.72;100.00
11523;BME280;40093;43.224;27.910;2023-03-01T00:51:49;101447.44;;;6.64;100.00
11523;BME280;40093;43.224;27.910;2023-03-01T00:54:16;101436.50;;;6.64;100.00
11523;BME280;40093;43.224;27.910;2023-03-01T00:56:43;101447.31;;;6.61;100.00
11523;BME280;40093;43.224;27.910;2023-03-01T00:59:10;101434.75;;;6.60;100.00
11523;BME280;40093;43.224;27.910;2023-03-01T01:01:37;101426.53;;;6.68;100.00
11523;BME280;40093;43.224;27.910;2023-03-01T01:04:05;101421.84;;;6.69;100.00
11523;BME280;40093;43.224;27.910;2023-03-01T01:06:37;101426.50;;;6.77;100.00
11523;BME280;40093;43.224;27.910;2023-03-01T01:09:05;101429.09;;;6.73;100.00
11523;BME280;40093;43.224;27.910;2023-03-01T01:11:33;101416.22;;;6.65;100.00
11523;BME280;40093;43.224;27.910;2023-03-01T01:14:02;101418.91;;;6.82;100.00
11523;BME280;40093;43.224;27.910;2023-03-01T01:16:29;101422.78;;;6.81;100.00
11523;BME280;40093;43.224;27.910;2023-03-01T01:18:57;101409.91;;;6.82;100.00
11523;BME280;40093;43.224;27.910;2023-03-01T01:21:25;101414.47;;;6.69;100.00
11523;BME280;40093;43.224;27.910;2023-03-01T01:23:54;101417.88;;;6.66;100.00
11523;BME280;40093;43.224;27.910;2023-03-01T01:26:23;101423.81;;;6.60;100.00
11523;BME280;40093;43.224;27.910;2023-03-01T01:28:52;101438.00;;;6.62;100.00
11523;BME280;40093;43.224;27.910;2023-03-01T01:31:19;101413.97;;;6.76;100.00
11523;BME280;40093;43.224;27.910;2023-03-01T01:33:49;101415.25;;;6.78;100.00
11523;BME280;40093;43.224;27.910;2023-03-01T01:36:16;101412.47;;;6.87;100.00
11523;BME280;40093;43.224;27.910;2023-03-01T01:38:43;101408.41;;;6.93;100.00
11523;BME280;40093;43.224;27.910;2023-03-01T01:41:13;101416.09;;;6.99;100.00
11523;BME280;40093;43.224;27.910;2023-03-01T01:43:42;101411.88;;;7.02;100.00
11523;BME280;40093;43.224;27.910;2023-03-01T01:46:16;101414.63;;;7.02;100.00
11523;BME280;40093;43.224;27.910;2023-03-01T01:48:50;101409.16;;;7.02;100.00
11523;BME280;40093;43.224;27.910;2023-03-01T01:51:21;101417.50;;;7.05;100.00
11523;BME280;40093;43.224;27.910;2023-03-01T01:53:55;101413.47;;;7.11;100.00
11523;BME280;40093;43.224;27.910;2023-03-01T01:56:25;101416.97;;;7.20;100.00
11523;BME280;40093;43.224;27.910;2023-03-01T01:58:53;101420.47;;;7.21;100.00
11523;BME280;40093;43.224;27.910;2023-03-01T02:01:21;101419.41;;;7.13;100.00
11523;BME280;40093;43.224;27.910;2023-03-01T02:03:49;101415.13;;;7.04;100.00
11523;BME280;40093;43.224;27.910;2023-03-01T02:06:19;101405.47;;;6.98;100.00
11523;BME280;40093;43.224;27.910;2023-03-01T02:08:49;101397.59;;;6.96;100.00
11523;BME280;40093;43.224;27.910;2023-03-01T02:11:19;101400.53;;;6.91;100.00
11523;BME280;40093;43.224;27.910;2023-03-01T02:13:49;101410.13;;;6.97;100.00
11523;BME280;40093;43.224;27.910;2023-03-01T02:16:17;101416.38;;;7.06;100.00
11523;BME280;40093;43.224;27.910;2023-03-01T02:18:44;101421.75;;;6.94;100.00
11523;BME280;40093;43.224;27.910;2023-03-01T02:21:26;101424.34;;;6.91;100.00
11523;BME280;40093;43.224;27.910;2023-03-01T02:23:58;101425.63;;;6.93;100.00
11523;BME280;40093;43.224;27.910;2023-03-01T02:26:34;101418.78;;;7.08;100.00
11523;BME280;40093;43.224;27.910;2023-03-01T02:29:04;101421.75;;;7.23;100.00
11523;BME280;40093;43.224;27.910;2023-03-01T02:31:32;101421.09;;;7.26;100.00
11523;BME280;40093;43.224;27.910;2023-03-01T02:34:10;101421.75;;;7.23;100.00
11523;BME280;40093;43.224;27.910;2023-03-01T02:36:40;101433.50;;;7.23;100.00
11523;BME280;40093;43.224;27.910;2023-03-01T02:39:13;101426.84;;;7.33;100.00
11523;BME280;40093;43.224;27.910;2023-03-01T02:41:46;101430.59;;;7.28;100.00
11523;BME280;40093;43.224;27.910;2023-03-01T02:44:16;101435.00;;;7.41;100.00
11523;BME280;40093;43.224;27.910;2023-03-01T02:46:44;101439.03;;;7.44;100.00
11523;BME280;40093;43.224;27.910;2023-03-01T02:49:21;101439.69;;;7.41;100.00
11523;BME280;40093;43.224;27.910;2023-03-01T02:51:59;101447.09;;;7.40;100.00
11523;BME280;40093;43.224;27.910;2023-03-01T02:54:31;101437.41;;;7.43;100.00
11523;BME280;40093;43.224;27.910;2023-03-01T02:57:00;101451.88;;;7.52;100.00
11523;BME280;40093;43.224;27.910;2023-03-01T02:59:32;101447.09;;;7.61;100.00
11523;BME280;40093;43.224;27.910;2023-03-01T03:02:04;101450.53;;;7.58;100.00
11523;BME280;40093;43.224;27.910;2023-03-01T03:04:31;101446.78;;;7.42;100.00
11523;BME280;40093;43.224;27.910;2023-03-01T03:06:58;101451.81;;;7.31;100.00
11523;BME280;40093;43.224;27.910;2023-03-01T03:09:25;101450.75;;;7.24;100.00
11523;BME280;40093;43.224;27.910;2023-03-01T03:11:52;101446.09;;;7.25;100.00
11523;BME280;40093;43.224;27.910;2023-03-01T03:14:19;101459.28;;;7.22;100.00
11523;BME280;40093;43.224;27.910;2023-03-01T03:16:48;101449.50;;;7.13;100.00
11523;BME280;40093;43.224;27.910;2023-03-01T03:19:16;101452.75;;;7.07;100.00
11523;BME280;40093;43.224;27.910;2023-03-01T03:21:43;101421.34;;;6.75;100.00
11523;BME280;40093;43.224;27.910;2023-03-01T03:24:10;101447.13;;;7.03;100.00
11523;BME280;40093;43.224;27.910;2023-03-01T03:26:37;101439.22;;;7.10;100.00
11523;BME280;40093;43.224;27.910;2023-03-01T03:29:04;101435.34;;;7.11;100.00
11523;BME280;40093;43.224;27.910;2023-03-01T03:31:31;101439.56;;;7.09;100.00
11523;BME280;40093;43.224;27.910;2023-03-01T03:33:59;101434.13;;;7.00;100.00
11523;BME280;40093;43.224;27.910;2023-03-01T03:36:26;101436.50;;;7.02;100.00
11523;BME280;40093;43.224;27.910;2023-03-01T03:38:53;101452.44;;;7.08;100.00
11523;BME280;40093;43.224;27.910;2023-03-01T03:41:20;101458.66;;;7.17;100.00
11523;BME280;40093;43.224;27.910;2023-03-01T03:43:46;101442.28;;;7.09;100.00
11523;BME280;40093;43.224;27.910;2023-03-01T03:46:14;101431.84;;;7.02;100.00
11523;BME280;40093;43.224;27.910;2023-03-01T03:48:44;101432.78;;;7.15;100.00
11523;BME280;40093;43.224;27.910;2023-03-01T03:51:13;101417.41;;;7.22;100.00
11523;BME280;40093;43.224;27.910;2023-03-01T03:53:41;101420.47;;;7.21;100.00
11523;BME280;40093;43.224;27.910;2023-03-01T03:56:08;101416.00;;;7.16;100.00
11523;BME280;40093;43.224;27.910;2023-03-01T03:58:36;101417.47;;;7.14;100.00
11523;BME280;40093;43.224;27.910;2023-03-01T04:01:03;101418.94;;;7.11;100.00
11523;BME280;40093;43.224;27.910;2023-03-01T04:03:31;101410.38;;;7.13;100.00
11523;BME280;40093;43.224;27.910;2023-03-01T04:05:59;101398.78;;;7.16;100.00
11523;BME280;40093;43.224;27.910;2023-03-01T04:08:28;101402.78;;;7.18;100.00
11523;BME280;40093;43.224;27.910;2023-03-01T04:10:58;101392.50;;;7.15;100.00
11523;BME280;40093;43.224;27.910;2023-03-01T04:13:25;101397.44;;;7.22;100.00
11523;BME280;40093;43.224;27.910;2023-03-01T04:15:53;101387.56;;;7.29;100.00
11523;BME280;40093;43.224;27.910;2023-03-01T04:18:23;101390.66;;;7.28;100.00
11523;BME280;40093;43.224;27.910;2023-03-01T04:20:50;101390.94;;;7.34;100.00
11523;BME280;40093;43.224;27.910;2023-03-01T04:23:21;101384.66;;;7.34;100.00
11523;BME280;40093;43.224;27.910;2023-03-01T04:25:52;101386.38;;;7.38;100.00
11523;BME280;40093;43.224;27.910;2023-03-01T04:28:21;101390.88;;;7.43;100.00
11523;BME280;40093;43.224;27.910;2023-03-01T04:30:50;101399.81;;;7.52;100.00
11523;BME280;40093;43.224;27.910;2023-03-01T04:33:17;101400.28;;;7.54;100.00
11523;BME280;40093;43.224;27.910;2023-03-01T04:35:45;101403.94;;;7.58;100.00
11523;BME280;40093;43.224;27.910;2023-03-01T04:38:15;101416.03;;;7.57;100.00
11523;BME280;40093;43.224;27.910;2023-03-01T04:40:41;101413.63;;;7.55;100.00
11523;BME280;40093;43.224;27.910;2023-03-01T04:43:12;101412.38;;;7.53;100.00
11523;BME280;40093;43.224;27.910;2023-03-01T04:45:43;101418.72;;;7.45;100.00
11523;BME280;40093;43.224;27.910;2023-03-01T04:48:10;101413.38;;;7.48;100.00
11523;BME280;40093;43.224;27.910;2023-03-01T04:50:37;101405.84;;;7.45;100.00
11523;BME280;40093;43.224;27.910;2023-03-01T04:53:04;101412.78;;;7.43;100.00
11523;BME280;40093;43.224;27.910;2023-03-01T04:55:31;101410.28;;;7.29;100.00
11523;BME280;40093;43.224;27.910;2023-03-01T04:57:58;101402.38;;;7.28;100.00
11523;BME280;40093;43.224;27.910;2023-03-01T05:00:26;101403.53;;;7.27;100.00
11523;BME280;40093;43.224;27.910;2023-03-01T05:02:55;101406.72;;;7.29;100.00
11523;BME280;40093;43.224;27.910;2023-03-01T05:05:25;101405.28;;;7.31;100.00
11523;BME280;40093;43.224;27.910;2023-03-01T05:07:54;101408.53;;;7.25;100.00
11523;BME280;40093;43.224;27.910;2023-03-01T05:10:21;101402.53;;;7.31;100.00
11523;BME280;40093;43.224;27.910;2023-03-01T05:12:48;101408.09;;;7.43;100.00
11523;BME280;40093;43.224;27.910;2023-03-01T05:15:17;101390.03;;;7.22;100.00
11523;BME280;40093;43.224;27.910;2023-03-01T05:17:46;101407.63;;;7.41;100.00
11523;BME280;40093;43.224;27.910;2023-03-01T05:20:13;101414.56;;;7.39;100.00
11523;BME280;40093;43.224;27.910;2023-03-01T05:22:41;101409.59;;;7.32;100.00
11523;BME280;40093;43.224;27.910;2023-03-01T05:25:08;101411.09;;;7.30;100.00
11523;BME280;40093;43.224;27.910;2023-03-01T05:27:35;101415.63;;;7.26;100.00
11523;BME280;40093;43.224;27.910;2023-03-01T05:30:03;101407.59;;;7.21;100.00
11523;BME280;40093;43.224;27.910;2023-03-01T05:32:40;101399.72;;;7.20;100.00
11523;BME280;40093;43.224;27.910;2023-03-01T05:35:10;101406.78;;;7.21;100.00
11523;BME280;40093;43.224;27.910;2023-03-01T05:37:41;101405.63;;;7.30;100.00
11523;BME280;40093;43.224;27.910;2023-03-01T05:40:09;101407.22;;;7.31;100.00
11523;BME280;40093;43.224;27.910;2023-03-01T05:42:44;101404.66;;;7.26;100.00
11523;BME280;40093;43.224;27.910;2023-03-01T05:45:12;101415.69;;;7.38;100.00
11523;BME280;40093;43.224;27.910;2023-03-01T05:47:39;101408.63;;;7.37;100.00
11523;BME280;40093;43.224;27.910;2023-03-01T05:50:12;101407.09;;;7.28;100.00
11523;BME280;40093;43.224;27.910;2023-03-01T05:52:43;101407.69;;;7.33;100.00
11523;BME280;40093;43.224;27.910;2023-03-01T05:55:10;101414.47;;;7.27;100.00
11523;BME280;40093;43.224;27.910;2023-03-01T05:57:37;101412.41;;;7.24;100.00
11523;BME280;40093;43.224;27.910;2023-03-01T06:00:04;101410.81;;;7.23;100.00
11523;BME280;40093;43.224;27.910;2023-03-01T06:02:32;101410.13;;;7.26;100.00
11523;BME280;40093;43.224;27.910;2023-03-01T06:04:59;101411.56;;;7.03;100.00
11523;BME280;40093;43.224;27.910;2023-03-01T06:07:28;101416.06;;;7.08;100.00
11523;BME280;40093;43.224;27.910;2023-03-01T06:09:55;101408.22;;;6.98;100.00
11523;BME280;40093;43.224;27.910;2023-03-01T06:12:21;101409.44;;;7.09;100.00
11523;BME280;40093;43.224;27.910;2023-03-01T06:14:48;101410.38;;;7.13;100.00
11523;BME280;40093;43.224;27.910;2023-03-01T06:17:15;101418.69;;;7.25;100.00
11523;BME280;40093;43.224;27.910;2023-03-01T06:19:42;101420.03;;;7.39;100.00
11523;BME280;40093;43.224;27.910;2023-03-01T06:22:09;101425.25;;;7.32;100.00
11523;BME280;40093;43.224;27.910;2023-03-01T06:24:37;101424.28;;;7.28;100.00
11523;BME280;40093;43.224;27.910;2023-03-01T06:27:04;101416.38;;;7.35;100.00
11523;BME280;40093;43.224;27.910;2023-03-01T06:29:31;101422.31;;;7.37;100.00
11523;BME280;40093;43.224;27.910;2023-03-01T06:31:58;101408.22;;;7.47;100.00
11523;BME280;40093;43.224;27.910;2023-03-01T06:34:24;101415.50;;;7.43;100.00
11523;BME280;40093;43.224;27.910;2023-03-01T06:36:51;101399.47;;;7.33;100.00
11523;BME280;40093;43.224;27.910;2023-03-01T06:39:18;101429.38;;;7.38;100.00
11523;BME280;40093;43.224;27.910;2023-03-01T06:41:47;101419.53;;;7.45;100.00
11523;BME280;40093;43.224;27.910;2023-03-01T06:44:13;101416.19;;;7.40;100.00
11523;BME280;40093;43.224;27.910;2023-03-01T06:46:40;101402.69;;;7.35;100.00
11523;BME280;40093;43.224;27.910;2023-03-01T06:49:07;101413.34;;;7.28;100.00
11523;BME280;40093;43.224;27.910;2023-03-01T06:51:35;101396.53;;;7.38;100.00
11523;BME280;40093;43.224;27.910;2023-03-01T06:54:03;101398.81;;;7.36;100.00
11523;BME280;40093;43.224;27.910;2023-03-01T06:56:30;101410.72;;;7.40;100.00
11523;BME280;40093;43.224;27.910;2023-03-01T06:58:59;101413.91;;;7.42;100.00
11523;BME280;40093;43.224;27.910;2023-03-01T07:01:26;101413.69;;;7.47;100.00
11523;BME280;40093;43.224;27.910;2023-03-01T07:03:53;101415.75;;;7.50;100.00
11523;BME280;40093;43.224;27.910;2023-03-01T07:06:20;101417.19;;;7.56;100.00
11523;BME280;40093;43.224;27.910;2023-03-01T07:08:47;101408.69;;;7.49;100.00
11523;BME280;40093;43.224;27.910;2023-03-01T07:11:14;101419.53;;;7.45;100.00
11523;BME280;40093;43.224;27.910;2023-03-01T07:13:41;101416.78;;;7.45;100.00
11523;BME280;40093;43.224;27.910;2023-03-01T07:16:10;101409.19;;;7.51;100.00
11523;BME280;40093;43.224;27.910;2023-03-01T07:18:37;101413.53;;;7.52;100.00
11523;BME280;40093;43.224;27.910;2023-03-01T07:21:05;101416.59;;;7.50;100.00
11523;BME280;40093;43.224;27.910;2023-03-01T07:23:32;101421.91;;;7.47;100.00
11523;BME280;40093;43.224;27.910;2023-03-01T07:25:59;101417.59;;;7.46;100.00
11523;BME280;40093;43.224;27.910;2023-03-01T07:28:27;101429.66;;;7.45;100.00
11523;BME280;40093;43.224;27.910;2023-03-01T07:30:54;101421.53;;;7.36;100.00
11523;BME280;40093;43.224;27.910;2023-03-01T07:33:22;101425.50;;;7.39;100.00
11523;BME280;40093;43.224;27.910;2023-03-01T07:35:56;101432.00;;;7.34;100.00
11523;BME280;40093;43.224;27.910;2023-03-01T07:38:24;101430.53;;;7.37;100.00
11523;BME280;40093;43.224;27.910;2023-03-01T07:40:51;101423.91;;;7.38;100.00
11523;BME280;40093;43.224;27.910;2023-03-01T07:43:18;101422.28;;;7.17;100.00
11523;BME280;40093;43.224;27.910;2023-03-01T07:45:46;101417.41;;;7.22;100.00
11523;BME280;40093;43.224;27.910;2023-03-01T07:48:13;101410.13;;;7.26;100.00
11523;BME280;40093;43.224;27.910;2023-03-01T07:50:41;101410.13;;;7.26;100.00
11523;BME280;40093;43.224;27.910;2023-03-01T07:53:08;101414.53;;;7.19;100.00
11523;BME280;40093;43.224;27.910;2023-03-01T07:55:35;101415.06;;;7.12;100.00
11523;BME280;40093;43.224;27.910;2023-03-01T07:58:02;101410.38;;;7.13;100.00
11523;BME280;40093;43.224;27.910;2023-03-01T08:00:29;101413.47;;;7.11;100.00
11523;BME280;40093;43.224;27.910;2023-03-01T08:02:59;101405.31;;;7.03;100.00
11523;BME280;40093;43.224;27.910;2023-03-01T08:05:26;101413.47;;;7.11;100.00
11523;BME280;40093;43.224;27.910;2023-03-01T08:07:54;101421.00;;;7.14;100.00
11523;BME280;40093;43.224;27.910;2023-03-01T08:10:22;101416.00;;;7.16;100.00
11523;BME280;40093;43.224;27.910;2023-03-01T08:12:51;101418.97;;;7.31;100.00
11523;BME280;40093;43.224;27.910;2023-03-01T08:15:18;101409.75;;;7.36;100.00
11523;BME280;40093;43.224;27.910;2023-03-01T08:17:45;101406.56;;;7.34;100.00
11523;BME280;40093;43.224;27.910;2023-03-01T08:20:12;101421.16;;;7.38;100.00
11523;BME280;40093;43.224;27.910;2023-03-01T08:22:39;101428.22;;;7.47;100.00
11523;BME280;40093;43.224;27.910;2023-03-01T08:25:08;101414.44;;;7.35;100.00
11523;BME280;40093;43.224;27.910;2023-03-01T08:27:35;101422.69;;;7.27;100.00
11523;BME280;40093;43.224;27.910;2023-03-01T08:30:02;101425.25;;;7.32;100.00
11523;BME280;40093;43.224;27.910;2023-03-01T08:32:29;101418.72;;;7.45;100.00
11523;BME280;40093;43.224;27.910;2023-03-01T08:34:56;101419.53;;;7.66;100.00
11523;BME280;40093;43.224;27.910;2023-03-01T08:37:23;101409.16;;;7.71;100.00
11523;BME280;40093;43.224;27.910;2023-03-01T08:39:50;101420.31;;;7.87;100.00
11523;BME280;40093;43.224;27.910;2023-03-01T08:42:18;101410.84;;;7.64;100.00
11523;BME280;40093;43.224;27.910;2023-03-01T08:44:45;101415.53;;;7.84;100.00
11523;BME280;40093;43.224;27.910;2023-03-01T08:47:12;101413.91;;;7.83;100.00
11523;BME280;40093;43.224;27.910;2023-03-01T08:49:39;101417.78;;;7.82;100.00
11523;BME280;40093;43.224;27.910;2023-03-01T08:52:06;101417.50;;;7.95;100.00
11523;BME280;40093;43.224;27.910;2023-03-01T08:54:32;101423.13;;;7.99;100.00
11523;BME280;40093;43.224;27.910;2023-03-01T08:57:01;101421.88;;;8.08;100.00
11523;BME280;40093;43.224;27.910;2023-03-01T08:59:30;101417.69;;;8.11;100.00
11523;BME280;40093;43.224;27.910;2023-03-01T09:02:01;101411.06;;;8.12;100.00
11523;BME280;40093;43.224;27.910;2023-03-01T09:04:27;101409.13;;;8.12;100.00
11523;BME280;40093;43.224;27.910;2023-03-01T09:06:54;101409.59;;;8.14;100.00
11523;BME280;40093;43.224;27.910;2023-03-01T09:09:21;101416.00;;;8.18;100.00
11523;BME280;40093;43.224;27.910;2023-03-01T09:11:48;101401.22;;;8.11;100.00
11523;BME280;40093;43.224;27.910;2023-03-01T09:14:16;101402.00;;;8.32;100.00
11523;BME280;40093;43.224;27.910;2023-03-01T09:16:44;101398.06;;;8.41;100.00
11523;BME280;40093;43.224;27.910;2023-03-01T09:19:12;101411.41;;;8.43;100.00
11523;BME280;40093;43.224;27.910;2023-03-01T09:21:39;101404.31;;;8.42;100.00
11523;BME280;40093;43.224;27.910;2023-03-01T09:24:07;101404.78;;;8.11;100.00
11523;BME280;40093;43.224;27.910;2023-03-01T09:26:38;101403.28;;;8.14;100.00
11523;BME280;40093;43.224;27.910;2023-03-01T09:29:05;101407.59;;;8.23;100.00
11523;BME280;40093;43.224;27.910;2023-03-01T09:31:33;101409.59;;;8.14;100.00
11523;BME280;40093;43.224;27.910;2023-03-01T09:34:01;101405.19;;;8.22;100.00
11523;BME280;40093;43.224;27.910;2023-03-01T09:36:28;101407.03;;;8.30;100.00
11523;BME280;40093;43.224;27.910;2023-03-01T09:38:56;101417.13;;;8.38;100.00
11523;BME280;40093;43.224;27.910;2023-03-01T09:41:43;101403.78;;;8.16;100.00
11523;BME280;40093;43.224;27.910;2023-03-01T09:44:18;101416.75;;;8.07;100.00
11523;BME280;40093;43.224;27.910;2023-03-01T09:46:48;101408.53;;;8.07;100.00
11523;BME280;40093;43.224;27.910;2023-03-01T09:49:20;101408.00;;;7.93;100.00
11523;BME280;40093;43.224;27.910;2023-03-01T09:51:55;101398.72;;;8.06;100.00
11523;BME280;40093;43.224;27.910;2023-03-01T09:54:23;101405.78;;;8.07;100.00
11523;BME280;40093;43.224;27.910;2023-03-01T09:57:06;101410.75;;;7.93;100.00
11523;BME280;40093;43.224;27.910;2023-03-01T09:59:48;101406.31;;;7.88;100.00
11523;BME280;40093;43.224;27.910;2023-03-01T10:02:24;101399.31;;;7.91;100.00
11523;BME280;40093;43.224;27.910;2023-03-01T10:04:58;101391.50;;;7.81;100.00
11523;BME280;40093;43.224;27.910;2023-03-01T10:07:38;101395.94;;;7.73;100.00
11523;BME280;40093;43.224;27.910;2023-03-01T10:10:18;101391.00;;;7.67;100.00
11523;BME280;40093;43.224;27.910;2023-03-01T10:12:50;101384.38;;;7.68;100.00
11523;BME280;40093;43.224;27.910;2023-03-01T10:15:33;101386.44;;;7.71;100.00
11523;BME280;40093;43.224;27.910;2023-03-01T10:18:06;101383.78;;;7.83;100.00
11523;BME280;40093;43.224;27.910;2023-03-01T10:20:46;101379.81;;;7.92;100.00
11523;BME280;40093;43.224;27.910;2023-03-01T10:23:15;101386.59;;;8.07;100.00
11523;BME280;40093;43.224;27.910;2023-03-01T10:28:42;101373.19;;;7.93;100.00
11523;BME280;40093;43.224;27.910;2023-03-01T10:31:12;101377.94;;;7.84;100.00
11523;BME280;40093;43.224;27.910;2023-03-01T10:33:41;101371.53;;;7.80;100.00
11523;BME280;40093;43.224;27.910;2023-03-01T10:36:10;101361.38;;;7.81;100.00
11523;BME280;40093;43.224;27.910;2023-03-01T10:38:51;101364.16;;;7.93;100.00
11523;BME280;40093;43.224;27.910;2023-03-01T10:41:20;101366.41;;;8.11;100.00
11523;BME280;40093;43.224;27.910;2023-03-01T10:43:51;101356.91;;;8.09;100.00
11523;BME280;40093;43.224;27.910;2023-03-01T10:46:24;101350.63;;;8.08;100.00
11523;BME280;40093;43.224;27.910;2023-03-01T10:49:16;101348.44;;;8.02;100.00
11523;BME280;40093;43.224;27.910;2023-03-01T10:51:46;101344.41;;;8.20;100.00
11523;BME280;40093;43.224;27.910;2023-03-01T10:54:20;101341.34;;;8.33;100.00
11523;BME280;40093;43.224;27.910;2023-03-01T10:56:49;101342.63;;;8.48;100.00
11523;BME280;40093;43.224;27.910;2023-03-01T10:59:22;101343.97;;;8.42;100.00
11523;BME280;40093;43.224;27.910;2023-03-01T11:02:02;101347.88;;;8.41;100.00
11523;BME280;40093;43.224;27.910;2023-03-01T11:04:29;101349.13;;;8.31;100.00
11523;BME280;40093;43.224;27.910;2023-03-01T11:07:02;101337.34;;;8.31;100.00
11523;BME280;40093;43.224;27.910;2023-03-01T11:09:32;101343.47;;;8.16;100.00
11523;BME280;40093;43.224;27.910;2023-03-01T11:12:05;101335.94;;;8.25;100.00
11523;BME280;40093;43.224;27.910;2023-03-01T11:14:46;101319.28;;;8.30;100.00
11523;BME280;40093;43.224;27.910;2023-03-01T11:17:17;101318.84;;;8.40;100.00
11523;BME280;40093;43.224;27.910;2023-03-01T11:19:59;101325.13;;;8.40;100.00
11523;BME280;40093;43.224;27.910;2023-03-01T11:22:28;101318.38;;;8.26;100.00
11523;BME280;40093;43.224;27.910;2023-03-01T11:24:57;101300.47;;;7.96;100.00
11523;BME280;40093;43.224;27.910;2023-03-01T11:27:26;101301.03;;;8.01;100.00
11523;BME280;40093;43.224;27.910;2023-03-01T11:29:58;101291.56;;;8.11;100.00
11523;BME280;40093;43.224;27.910;2023-03-01T11:32:31;101289.56;;;8.20;100.00
11523;BME280;40093;43.224;27.910;2023-03-01T11:35:08;101288.44;;;8.45;100.00
11523;BME280;40093;43.224;27.910;2023-03-01T11:37:41;101294.63;;;8.54;100.00
11523;BME280;40093;43.224;27.910;2023-03-01T11:40:16;101299.53;;;8.48;100.00
11523;BME280;40093;43.224;27.910;2023-03-01T11:42:53;101292.06;;;8.25;100.00
11523;BME280;40093;43.224;27.910;2023-03-01T11:45:24;101279.69;;;8.07;100.00
11523;BME280;40093;43.224;27.910;2023-03-01T11:48:17;101281.47;;;8.23;100.00
11523;BME280;40093;43.224;27.910;2023-03-01T11:50:50;101274.53;;;8.05;100.00
11523;BME280;40093;43.224;27.910;2023-03-01T11:53:47;101278.38;;;8.25;100.00
11523;BME280;40093;43.224;27.910;2023-03-01T11:56:26;101283.06;;;8.24;100.00
11523;BME280;40093;43.224;27.910;2023-03-01T11:59:04;101276.25;;;8.10;100.00
11523;BME280;40093;43.224;27.910;2023-03-01T12:01:46;101279.47;;;8.12;100.00
11523;BME280;40093;43.224;27.910;2023-03-01T12:04:30;101275.84;;;8.20;100.00
11523;BME280;40093;43.224;27.910;2023-03-01T12:07:00;101264.41;;;8.06;100.00
11523;BME280;40093;43.224;27.910;2023-03-01T12:09:47;101258.56;;;8.07;100.00
11523;BME280;40093;43.224;27.910;2023-03-01T12:12:29;101256.66;;;8.20;100.00
11523;BME280;40093;43.224;27.910;2023-03-01T12:18:13;101265.59;;;8.29;100.00
11523;BME280;40093;43.224;27.910;2023-03-01T12:20:51;101264.19;;;8.23;100.00
11523;BME280;40093;43.224;27.910;2023-03-01T12:26:30;101241.78;;;8.09;100.00
11523;BME280;40093;43.224;27.910;2023-03-01T12:29:25;101235.84;;;8.07;100.00
11523;BME280;40093;43.224;27.910;2023-03-01T12:32:16;101248.66;;;8.15;100.00
11523;BME280;40093;43.224;27.910;2023-03-01T12:38:02;101256.38;;;8.01;100.00
11523;BME280;40093;43.224;27.910;2023-03-01T12:40:50;101255.94;;;8.11;100.00
11523;BME280;40093;43.224;27.910;2023-03-01T12:43:34;101261.38;;;8.31;100.00
11523;BME280;40093;43.224;27.910;2023-03-01T12:46:21;101259.88;;;8.34;100.00
11523;BME280;40093;43.224;27.910;2023-03-01T12:49:01;101266.28;;;8.38;100.00
11523;BME280;40093;43.224;27.910;2023-03-01T12:51:34;101249.56;;;8.55;100.00
11523;BME280;40093;43.224;27.910;2023-03-01T12:54:07;101246.63;;;8.60;100.00
11523;BME280;40093;43.224;27.910;2023-03-01T12:56:38;101245.69;;;8.56;100.00
11523;BME280;40093;43.224;27.910;2023-03-01T12:59:13;101244.47;;;8.41;100.00
11523;BME280;40093;43.224;27.910;2023-03-01T13:01:49;101247.41;;;8.36;100.00
11523;BME280;40093;43.224;27.910;2023-03-01T13:04:30;101246.28;;;8.25;100.00
11523;BME280;40093;43.224;27.910;2023-03-01T13:07:14;101250.28;;;8.28;100.00